createdAt,value
2024-03-01T00:06:35.732Z,0
2024-03-01T00:21:56.696Z,0
2024-03-01T00:37:17.678Z,0
2024-03-01T00:52:38.649Z,0
2024-03-01T01:07:59.625Z,0
2024-03-01T01:38:41.552Z,0
2024-03-01T01:54:02.527Z,0
2024-03-01T02:09:23.491Z,0
2024-03-01T02:24:44.467Z,0
2024-03-01T02:40:04.453Z,0
2024-03-01T02:55:25.431Z,0
2024-03-01T03:10:46.399Z,0
2024-03-01T03:26:07.369Z,0
2024-03-01T03:41:28.346Z,0
2024-03-01T04:12:10.294Z,0
2024-03-01T04:27:31.000Z,0
2024-03-01T04:42:52.238Z,0
2024-03-01T04:58:13.201Z,0
2024-03-01T05:13:34.177Z,0
2024-03-01T05:28:55.106Z,2
2024-03-01T05:44:16.031Z,17
2024-03-01T05:59:35.994Z,65
2024-03-01T06:14:56.917Z,145
2024-03-01T06:30:17.796Z,140
2024-03-01T06:45:38.773Z,251
2024-03-01T07:00:59.693Z,494
2024-03-01T07:16:20.634Z,919
2024-03-01T07:31:40.000Z,1050
2024-03-01T07:47:01.498Z,1417
2024-03-01T08:02:22.408Z,1400
2024-03-01T08:03:43.435Z,1440
2024-03-01T08:05:04.538Z,1499
2024-03-01T08:06:25.620Z,1577
2024-03-01T08:07:46.643Z,1628
2024-03-01T08:09:07.703Z,1632
2024-03-01T08:10:28.000Z,1572
2024-03-01T08:11:49.825Z,1533
2024-03-01T08:13:10.939Z,1605
2024-03-01T08:14:32.011Z,1644
2024-03-01T08:15:53.076Z,1681
2024-03-01T08:17:13.170Z,1665
2024-03-01T08:18:34.237Z,1712
2024-03-01T08:19:55.301Z,1676
2024-03-01T08:21:16.368Z,1672
2024-03-01T08:22:37.380Z,1671
2024-03-01T08:23:58.494Z,1691
2024-03-01T08:25:19.557Z,1657
2024-03-01T08:26:40.000Z,3072
2024-03-01T08:28:01.690Z,1412
2024-03-01T08:29:22.776Z,1408
2024-03-01T08:30:43.832Z,1443
2024-03-01T08:32:04.893Z,1466
2024-03-01T08:33:25.968Z,1498
2024-03-01T08:34:45.991Z,1497
2024-03-01T08:36:07.124Z,1533
2024-03-01T08:37:28.000Z,1592
2024-03-01T08:38:49.247Z,1544
2024-03-01T08:40:10.313Z,1527
2024-03-01T08:41:31.345Z,1508
2024-03-01T08:42:52.412Z,1503
2024-03-01T08:44:13.528Z,1505
2024-03-01T08:45:34.578Z,1488
2024-03-01T08:46:55.641Z,1483
2024-03-01T08:48:16.658Z,1478
2024-03-01T08:49:37.774Z,3072
2024-03-01T08:50:58.841Z,1469
2024-03-01T08:52:18.919Z,1464
2024-03-01T08:53:39.989Z,1436
2024-03-01T08:55:01.061Z,1461
2024-03-01T08:56:22.080Z,1442
2024-03-01T08:57:43.189Z,1403
2024-03-01T08:59:04.254Z,1382
2024-03-01T09:00:25.312Z,1370
2024-03-01T09:01:46.374Z,1362
2024-03-01T09:03:07.462Z,1360
2024-03-01T09:04:28.514Z,1370
2024-03-01T09:05:49.595Z,1372
2024-03-01T09:07:10.648Z,1386
2024-03-01T09:08:31.722Z,1401
2024-03-01T09:09:51.771Z,1420
2024-03-01T09:11:12.858Z,3072
2024-03-01T09:12:33.927Z,1480
2024-03-01T09:13:55.007Z,1462
2024-03-01T09:15:16.065Z,1446
2024-03-01T09:16:37.132Z,1449
2024-03-01T09:17:58.185Z,1438
2024-03-01T09:19:19.280Z,1433
2024-03-01T09:20:40.344Z,1425
2024-03-01T09:22:01.405Z,3072
2024-03-01T09:23:22.447Z,1407
2024-03-01T09:24:43.547Z,1412
2024-03-01T09:26:04.611Z,1411
2024-03-01T09:27:24.684Z,3072
2024-03-01T09:28:45.759Z,1405
2024-03-01T09:30:06.796Z,3072
2024-03-01T09:31:27.888Z,1399
2024-03-01T09:32:48.956Z,1401
2024-03-01T09:34:09.992Z,1405
2024-03-01T09:35:31.094Z,1409
2024-03-01T09:36:52.151Z,1408
2024-03-01T09:38:13.217Z,1402
2024-03-01T09:39:34.276Z,1399
2024-03-01T09:40:55.324Z,1404
2024-03-01T09:42:16.417Z,1407
2024-03-01T09:43:37.484Z,1404
2024-03-01T09:44:57.563Z,1401
2024-03-01T09:46:18.630Z,1408
2024-03-01T09:47:39.695Z,1405
2024-03-01T09:49:00.764Z,1411
2024-03-01T09:50:21.811Z,1413
2024-03-01T09:51:42.901Z,1415
2024-03-01T09:53:03.963Z,1408
2024-03-01T09:55:46.099Z,1407
2024-03-01T09:57:07.167Z,1399
2024-03-01T09:58:28.222Z,1398
2024-03-01T09:59:49.293Z,1392
2024-03-01T10:01:10.354Z,1385
2024-03-01T10:03:51.507Z,1387
2024-03-01T10:05:12.571Z,1390
2024-03-01T10:06:33.623Z,1387
2024-03-01T10:07:54.696Z,1384
2024-03-01T10:09:15.757Z,1386
2024-03-01T10:10:36.816Z,1382
2024-03-01T10:11:57.881Z,1384
2024-03-01T10:13:18.937Z,1385
2024-03-01T10:14:40.026Z,1393
2024-03-01T10:17:22.144Z,1383
2024-03-01T10:18:42.257Z,1376
2024-03-01T10:20:02.339Z,1384
2024-03-01T10:21:23.413Z,1385
2024-03-01T10:22:44.489Z,1387
2024-03-01T10:24:05.535Z,1391
2024-03-01T10:25:26.610Z,1404
2024-03-01T10:26:47.679Z,1417
2024-03-01T10:28:08.765Z,1431
2024-03-01T10:29:29.821Z,1443
2024-03-01T10:30:50.866Z,1461
2024-03-01T10:32:10.979Z,1474
2024-03-01T10:33:31.085Z,1464
2024-03-01T10:34:51.153Z,1457
2024-03-01T10:36:12.232Z,1460
2024-03-01T10:37:33.282Z,1467
2024-03-01T10:38:54.000Z,1472
2024-03-01T10:40:15.426Z,1477
2024-03-01T10:41:36.491Z,1470
2024-03-01T10:42:57.523Z,1460
2024-03-01T10:44:18.615Z,1461
2024-03-01T10:45:39.678Z,1464
2024-03-01T10:47:00.754Z,1462
2024-03-01T10:48:21.802Z,1458
2024-03-01T10:49:42.862Z,1457
2024-03-01T10:51:03.940Z,1447
2024-03-01T10:52:24.009Z,1444
2024-03-01T10:53:45.098Z,1436
2024-03-01T10:55:06.176Z,1432
2024-03-01T10:56:27.228Z,1422
2024-03-01T10:57:48.309Z,1425
2024-03-01T10:59:09.377Z,1427
2024-03-01T11:00:29.469Z,1422
2024-03-01T11:01:49.000Z,1420
2024-03-01T11:03:10.619Z,1423
2024-03-01T11:04:31.697Z,1411
2024-03-01T11:05:52.750Z,1418
2024-03-01T11:07:13.819Z,1412
2024-03-01T11:08:34.886Z,1406
2024-03-01T11:09:55.952Z,1401
2024-03-01T11:11:17.014Z,1399
2024-03-01T11:12:38.084Z,1392
2024-03-01T11:13:59.147Z,1383
2024-03-01T11:15:20.230Z,1386
2024-03-01T11:16:41.280Z,1390
2024-03-01T11:18:02.364Z,1391
2024-03-01T11:19:22.438Z,1388
2024-03-01T11:20:43.521Z,1393
2024-03-01T11:22:04.579Z,1392
2024-03-01T11:23:25.648Z,1390
2024-03-01T11:24:46.708Z,1387
2024-03-01T11:26:07.791Z,1378
2024-03-01T11:27:27.879Z,1378
2024-03-01T11:28:47.969Z,1378
2024-03-01T11:30:09.000Z,1380
2024-03-01T11:31:30.101Z,1369
2024-03-01T11:32:51.150Z,1368
2024-03-01T11:34:12.223Z,1369
2024-03-01T11:35:33.284Z,1378
2024-03-01T11:36:54.362Z,1384
2024-03-01T11:38:15.421Z,1377
2024-03-01T11:39:36.498Z,1380
2024-03-01T11:40:57.550Z,1380
2024-03-01T11:42:18.621Z,1382
2024-03-01T11:43:39.656Z,1386
2024-03-01T11:45:00.749Z,1383
2024-03-01T11:46:20.811Z,1380
2024-03-01T11:47:41.907Z,1382
2024-03-01T11:49:02.965Z,1395
2024-03-01T11:50:24.043Z,1398
2024-03-01T11:51:45.104Z,1395
2024-03-01T11:53:06.175Z,1402
2024-03-01T11:54:26.266Z,1413
2024-03-01T11:55:46.343Z,1408
2024-03-01T11:57:07.377Z,1418
2024-03-01T11:58:28.466Z,1419
2024-03-01T11:59:49.546Z,1409
2024-03-01T12:01:10.605Z,1407
2024-03-01T12:02:31.668Z,1394
2024-03-01T12:03:52.728Z,1394
2024-03-01T12:05:13.799Z,1390
2024-03-01T12:06:34.867Z,1387
2024-03-01T12:07:55.935Z,1392
2024-03-01T12:09:16.994Z,1383
2024-03-01T12:10:38.060Z,1373
2024-03-01T12:11:59.137Z,1369
2024-03-01T12:13:19.203Z,1358
2024-03-01T12:14:40.282Z,3072
2024-03-01T12:16:01.338Z,1368
2024-03-01T12:17:22.418Z,1382
2024-03-01T12:18:43.472Z,1372
2024-03-01T12:21:25.605Z,1378
2024-03-01T12:22:45.714Z,1386
2024-03-01T12:24:05.801Z,1391
2024-03-01T12:25:25.893Z,1386
2024-03-01T12:26:45.972Z,1392
2024-03-01T12:28:07.029Z,1405
2024-03-01T12:29:28.095Z,1420
2024-03-01T12:30:48.178Z,1413
2024-03-01T12:32:09.264Z,1409
2024-03-01T12:33:30.331Z,1402
2024-03-01T12:34:51.388Z,1398
2024-03-01T12:36:12.441Z,1405
2024-03-01T12:37:33.500Z,1408
2024-03-01T12:38:54.583Z,1425
2024-03-01T12:40:15.639Z,1433
2024-03-01T12:41:36.721Z,1407
2024-03-01T12:42:57.777Z,1396
2024-03-01T12:44:18.848Z,1418
2024-03-01T12:45:39.921Z,1438
2024-03-01T12:47:00.983Z,1441
2024-03-01T12:48:21.071Z,1445
2024-03-01T12:49:42.129Z,1442
2024-03-01T12:51:03.195Z,1432
2024-03-01T12:52:23.293Z,1410
2024-03-01T12:53:43.384Z,1407
2024-03-01T12:55:04.453Z,1419
2024-03-01T12:56:25.509Z,1414
2024-03-01T12:57:46.581Z,1402
2024-03-01T12:59:07.634Z,1387
2024-03-01T13:01:49.783Z,1362
2024-03-01T13:03:10.832Z,1356
2024-03-01T13:04:31.902Z,3072
2024-03-01T13:05:52.966Z,1324
2024-03-01T13:07:14.043Z,1316
2024-03-01T13:08:35.111Z,1306
2024-03-01T13:09:56.166Z,1295
2024-03-01T13:11:17.239Z,1276
2024-03-01T13:12:37.320Z,1271
2024-03-01T13:13:58.391Z,1253
2024-03-01T13:15:19.417Z,1251
2024-03-01T13:16:40.521Z,1236
2024-03-01T13:18:01.579Z,1230
2024-03-01T13:19:22.651Z,1229
2024-03-01T13:20:42.000Z,1209
2024-03-01T13:22:02.788Z,1204
2024-03-01T13:23:23.864Z,1201
2024-03-01T13:24:44.961Z,1188
2024-03-01T13:26:06.000Z,3072
2024-03-01T13:27:27.087Z,1183
2024-03-01T13:28:48.151Z,1174
2024-03-01T13:30:09.212Z,1166
2024-03-01T13:31:30.248Z,1167
2024-03-01T13:32:51.348Z,1157
2024-03-01T13:34:12.433Z,1149
2024-03-01T13:35:33.467Z,1147
2024-03-01T13:36:54.568Z,1144
2024-03-01T13:38:15.619Z,1135
2024-03-01T13:39:35.670Z,1131
2024-03-01T13:40:56.775Z,1111
2024-03-01T13:42:17.801Z,1105
2024-03-01T13:43:38.871Z,1102
2024-03-01T13:44:59.974Z,1095
2024-03-01T13:46:21.033Z,1092
2024-03-01T13:47:41.120Z,1083
2024-03-01T13:49:01.216Z,1085
2024-03-01T13:50:21.306Z,1077
2024-03-01T13:51:42.346Z,1069
2024-03-01T13:53:03.399Z,1054
2024-03-01T13:54:24.508Z,1048
2024-03-01T13:55:45.570Z,1043
2024-03-01T13:58:27.686Z,1033
2024-03-01T13:59:48.729Z,1025
2024-03-01T14:01:09.823Z,3072
2024-03-01T14:02:30.895Z,1009
2024-03-01T14:03:51.969Z,1001
2024-03-01T14:05:13.005Z,987
2024-03-01T14:06:34.082Z,978
2024-03-01T14:07:54.192Z,970
2024-03-01T14:09:15.220Z,958
2024-03-01T14:10:36.322Z,945
2024-03-01T14:11:57.398Z,928
2024-03-01T14:14:39.528Z,927
2024-03-01T14:15:59.619Z,918
2024-03-01T14:17:19.690Z,906
2024-03-01T14:18:40.773Z,878
2024-03-01T14:20:01.838Z,871
2024-03-01T14:21:22.900Z,861
2024-03-01T14:22:43.925Z,846
2024-03-01T14:24:05.018Z,841
2024-03-01T14:25:26.097Z,836
2024-03-01T14:26:47.167Z,3072
2024-03-01T14:28:08.222Z,822
2024-03-01T14:29:28.316Z,818
2024-03-01T14:30:48.403Z,814
2024-03-01T14:32:09.460Z,799
2024-03-01T14:33:30.497Z,787
2024-03-01T14:34:51.599Z,784
2024-03-01T14:36:12.664Z,773
2024-03-01T14:37:33.742Z,765
2024-03-01T14:38:54.789Z,747
2024-03-01T14:40:15.857Z,739
2024-03-01T14:41:36.921Z,727
2024-03-01T14:42:57.989Z,714
2024-03-01T14:44:19.067Z,697
2024-03-01T14:45:40.134Z,682
2024-03-01T14:47:01.195Z,675
2024-03-01T14:48:21.283Z,665
2024-03-01T14:49:42.333Z,648
2024-03-01T14:51:03.410Z,634
2024-03-01T14:52:24.472Z,3072
2024-03-01T14:53:45.533Z,610
2024-03-01T14:55:06.573Z,595
2024-03-01T14:56:26.712Z,585
2024-03-01T14:57:46.795Z,575
2024-03-01T14:59:06.888Z,563
2024-03-01T15:00:27.952Z,555
2024-03-01T15:01:49.010Z,545
2024-03-01T15:03:10.084Z,540
2024-03-01T15:04:31.153Z,531
2024-03-01T15:05:52.191Z,522
2024-03-01T15:07:13.281Z,511
2024-03-01T15:08:34.355Z,503
2024-03-01T15:09:55.410Z,502
2024-03-01T15:11:16.477Z,481
2024-03-01T15:12:37.557Z,480
2024-03-01T15:13:58.612Z,471
2024-03-01T15:16:40.741Z,457
2024-03-01T15:19:21.895Z,444
2024-03-01T15:20:41.987Z,440
2024-03-01T15:22:02.032Z,425
2024-03-01T15:23:23.143Z,422
2024-03-01T15:24:44.202Z,415
2024-03-01T15:26:05.272Z,401
2024-03-01T15:27:26.324Z,391
2024-03-01T15:28:47.395Z,385
2024-03-01T15:30:08.458Z,375
2024-03-01T15:31:29.534Z,360
2024-03-01T15:32:50.597Z,355
2024-03-01T15:34:10.678Z,349
2024-03-01T15:35:30.760Z,343
2024-03-01T15:36:51.826Z,334
2024-03-01T15:38:12.901Z,330
2024-03-01T15:39:33.971Z,321
2024-03-01T15:40:55.037Z,311
2024-03-01T15:43:37.176Z,296
2024-03-01T15:44:58.236Z,3072
2024-03-01T15:46:19.305Z,287
2024-03-01T15:47:40.377Z,281
2024-03-01T15:49:01.440Z,273
2024-03-01T15:50:22.490Z,265
2024-03-01T15:51:43.558Z,264
2024-03-01T15:53:03.646Z,259
2024-03-01T15:54:24.718Z,251
2024-03-01T15:55:45.787Z,242
2024-03-01T15:57:06.839Z,241
2024-03-01T15:58:27.906Z,236
2024-03-01T15:59:48.988Z,234
2024-03-01T16:01:10.042Z,228
2024-03-01T16:02:31.268Z,225
2024-03-01T16:03:51.343Z,210
2024-03-01T16:05:12.413Z,212
2024-03-01T16:06:33.486Z,213
2024-03-01T16:07:54.542Z,200
2024-03-01T16:09:15.608Z,199
2024-03-01T16:10:36.670Z,190
2024-03-01T16:11:57.744Z,182
2024-03-01T16:13:18.806Z,178
2024-03-01T16:14:39.872Z,170
2024-03-01T16:16:00.909Z,165
2024-03-01T16:17:22.020Z,161
2024-03-01T16:18:43.066Z,154
2024-03-01T16:20:04.135Z,145
2024-03-01T16:21:24.233Z,3072
2024-03-01T16:24:06.352Z,128
2024-03-01T16:26:48.488Z,117
2024-03-01T16:28:08.589Z,110
2024-03-01T16:29:28.655Z,101
2024-03-01T16:30:49.735Z,94
2024-03-01T16:32:10.794Z,89
2024-03-01T16:33:31.866Z,86
2024-03-01T16:34:52.927Z,79
2024-03-01T16:36:13.989Z,74
2024-03-01T16:37:35.058Z,66
2024-03-01T16:38:56.133Z,61
2024-03-01T16:40:17.199Z,60
2024-03-01T16:41:37.286Z,56
2024-03-01T16:42:57.368Z,52
2024-03-01T16:44:18.442Z,41
2024-03-01T16:45:39.511Z,42
2024-03-01T16:47:00.573Z,36
2024-03-01T16:48:21.628Z,33
2024-03-01T16:49:42.707Z,32
2024-03-01T16:51:03.767Z,25
2024-03-01T16:52:24.830Z,21
2024-03-01T16:53:45.914Z,18
2024-03-01T16:56:27.996Z,18
2024-03-01T16:59:10.174Z,9
2024-03-01T17:00:30.253Z,4
2024-03-01T17:01:50.338Z,2
2024-03-01T17:03:11.426Z,5
2024-03-01T17:04:32.477Z,4
2024-03-01T17:05:53.536Z,4
2024-03-01T17:07:14.651Z,0
2024-03-01T17:08:35.755Z,0
2024-03-01T17:09:56.824Z,1
2024-03-01T17:11:17.905Z,2
2024-03-01T17:12:39.012Z,0
2024-03-01T17:13:59.101Z,1
2024-03-01T17:15:19.129Z,1
2024-03-01T17:16:40.286Z,0
2024-03-01T17:18:01.393Z,0
2024-03-01T17:19:22.500Z,0
2024-03-01T17:20:43.606Z,0
2024-03-01T17:22:04.716Z,0
2024-03-01T17:23:25.786Z,0
2024-03-01T17:24:46.942Z,0
2024-03-01T17:26:08.054Z,0
2024-03-01T17:27:29.152Z,0
2024-03-01T17:28:50.261Z,0
2024-03-01T17:30:11.348Z,0
2024-03-01T17:31:32.452Z,0
2024-03-01T17:32:52.577Z,0
2024-03-01T17:34:13.669Z,0
2024-03-01T17:35:34.794Z,0
2024-03-01T17:36:55.912Z,0
2024-03-01T17:38:17.022Z,0
2024-03-01T17:39:38.117Z,0
2024-03-01T17:40:58.268Z,0
2024-03-01T17:42:18.401Z,0
2024-03-01T17:43:39.496Z,0
2024-03-01T17:45:00.609Z,0
2024-03-01T17:46:21.713Z,0
2024-03-01T17:47:42.813Z,0
2024-03-01T17:49:03.928Z,0
2024-03-01T17:50:25.032Z,0
2024-03-01T17:51:46.143Z,0
2024-03-01T17:53:07.255Z,0
2024-03-01T17:54:28.381Z,0
2024-03-01T17:55:49.484Z,0
2024-03-01T17:57:10.590Z,0
2024-03-01T17:58:31.684Z,0
2024-03-01T17:59:51.819Z,0
2024-03-01T18:01:12.934Z,0
2024-03-01T18:02:34.044Z,0
2024-03-01T18:03:55.148Z,0
2024-03-01T18:05:16.266Z,0
2024-03-01T18:06:37.373Z,0
2024-03-01T18:07:57.505Z,0
2024-03-01T18:09:17.625Z,0
2024-03-01T18:10:38.736Z,0
2024-03-01T18:11:59.837Z,0
2024-03-01T18:13:20.945Z,0
2024-03-01T18:14:42.054Z,0
2024-03-01T18:16:03.167Z,0
2024-03-01T18:17:24.280Z,0
2024-03-01T18:18:45.393Z,0
2024-03-01T18:20:06.489Z,0
2024-03-01T18:21:27.590Z,0
2024-03-01T18:22:48.708Z,0
2024-03-01T18:25:30.919Z,0
2024-03-01T18:26:51.039Z,0
2024-03-01T18:29:33.265Z,0
2024-03-01T18:30:53.391Z,0
2024-03-01T18:32:13.531Z,0
2024-03-01T18:33:33.649Z,0
2024-03-01T18:34:54.753Z,0
2024-03-01T18:36:15.871Z,0
2024-03-01T18:37:36.971Z,0
2024-03-01T18:38:58.089Z,0
2024-03-01T18:40:19.192Z,0
2024-03-01T18:41:40.313Z,0
2024-03-01T18:43:01.425Z,0
2024-03-01T18:44:22.527Z,0
2024-03-01T18:45:42.661Z,0
2024-03-01T18:47:02.781Z,0
2024-03-01T18:48:23.891Z,0
2024-03-01T18:49:44.986Z,0
2024-03-01T18:51:06.103Z,0
2024-03-01T18:52:27.210Z,0
2024-03-01T18:53:48.323Z,0
2024-03-01T18:55:09.438Z,0
2024-03-01T18:56:30.532Z,0
2024-03-01T18:57:51.640Z,0
2024-03-01T19:00:33.866Z,0
2024-03-01T19:01:54.967Z,0
2024-03-01T19:03:16.077Z,0
2024-03-01T19:04:36.209Z,0
2024-03-01T19:05:57.323Z,0
2024-03-01T19:07:18.430Z,0
2024-03-01T19:08:39.536Z,0
2024-03-01T19:10:00.648Z,0
2024-03-01T19:11:21.745Z,0
2024-03-01T19:12:42.851Z,0
2024-03-01T19:14:02.992Z,0
2024-03-01T19:15:23.131Z,0
2024-03-01T19:16:43.241Z,0
2024-03-01T19:18:04.365Z,0
2024-03-01T19:19:25.465Z,0
2024-03-01T19:20:46.577Z,0
2024-03-01T19:22:07.671Z,0
2024-03-01T19:23:28.784Z,0
2024-03-01T19:24:49.907Z,0
2024-03-01T19:27:32.106Z,0
2024-03-01T19:28:53.219Z,0
2024-03-01T19:30:14.328Z,0
2024-03-01T19:31:35.441Z,0
2024-03-01T19:32:56.536Z,0
2024-03-01T19:34:16.663Z,0
2024-03-01T19:35:37.783Z,0
2024-03-01T19:36:58.877Z,0
2024-03-01T19:38:19.998Z,0
2024-03-01T19:39:41.088Z,0
2024-03-01T19:41:02.206Z,0
2024-03-01T19:42:23.319Z,0
2024-03-01T19:43:43.462Z,0
2024-03-01T19:59:03.448Z,0
2024-03-01T20:14:24.398Z,0
2024-03-01T20:29:45.374Z,0
2024-03-01T20:45:06.342Z,0
2024-03-01T21:00:27.303Z,0
2024-03-01T21:15:48.272Z,0
2024-03-01T21:31:09.231Z,0
2024-03-01T21:46:30.208Z,0
2024-03-01T22:01:51.172Z,0
2024-03-01T22:17:12.140Z,0
2024-03-01T22:32:33.116Z,0
2024-03-01T22:47:54.056Z,0
2024-03-01T23:03:15.034Z,0
2024-03-01T23:18:35.014Z,0
2024-03-01T23:33:55.992Z,0
2024-03-01T23:49:16.946Z,0
